createdAt,value
2018-03-18T00:00:15.106Z,0.00
2018-03-18T00:01:15.113Z,0.00
2018-03-18T00:02:15.127Z,0.00
2018-03-18T00:03:15.132Z,0.00
2018-03-18T00:04:15.141Z,0.00
2018-03-18T00:05:15.137Z,0.00
2018-03-18T00:06:15.149Z,0.00
2018-03-18T00:07:15.159Z,0.00
2018-03-18T00:08:15.164Z,0.00
2018-03-18T00:09:15.176Z,0.00
2018-03-18T00:10:15.173Z,0.00
2018-03-18T00:11:15.177Z,0.00
2018-03-18T00:12:15.191Z,0.00
2018-03-18T00:13:15.199Z,0.00
2018-03-18T00:14:15.193Z,0.00
2018-03-18T00:15:15.246Z,0.00
2018-03-18T00:16:15.210Z,0.00
2018-03-18T00:17:15.220Z,0.00
2018-03-18T00:18:15.228Z,0.00
2018-03-18T00:19:15.228Z,0.00
2018-03-18T00:20:15.237Z,0.00
2018-03-18T00:21:15.247Z,0.00
2018-03-18T00:22:15.251Z,0.00
2018-03-18T00:23:15.263Z,0.00
2018-03-18T00:24:15.257Z,0.00
2018-03-18T00:25:15.269Z,0.00
2018-03-18T00:26:15.280Z,0.00
2018-03-18T00:27:15.282Z,0.00
2018-03-18T00:28:15.295Z,0.00
2018-03-18T00:29:15.287Z,0.00
2018-03-18T00:30:15.301Z,0.00
2018-03-18T00:31:15.322Z,0.00
2018-03-18T00:32:15.318Z,0.00
2018-03-18T00:33:15.312Z,0.00
2018-03-18T00:34:15.319Z,0.00
2018-03-18T00:35:15.332Z,0.00
2018-03-18T00:36:15.336Z,0.00
2018-03-18T00:37:15.347Z,0.00
2018-03-18T00:38:15.343Z,0.00
2018-03-18T00:39:15.351Z,0.00
2018-03-18T00:40:15.363Z,0.00
2018-03-18T00:41:15.369Z,0.00
2018-03-18T00:42:15.377Z,0.00
2018-03-18T00:43:15.378Z,0.00
2018-03-18T00:44:15.383Z,0.00
2018-03-18T00:45:15.396Z,0.00
2018-03-18T00:46:15.405Z,0.00
2018-03-18T00:47:15.403Z,0.00
2018-03-18T00:48:15.406Z,0.00
2018-03-18T00:49:15.415Z,0.00
2018-03-18T00:50:15.428Z,0.00
2018-03-18T00:51:15.436Z,0.00
2018-03-18T00:52:15.433Z,0.00
2018-03-18T00:53:15.439Z,0.00
2018-03-18T00:54:15.449Z,0.00
2018-03-18T00:55:15.457Z,0.00
2018-03-18T00:56:15.453Z,0.00
2018-03-18T00:57:15.460Z,0.00
2018-03-18T00:58:15.470Z,0.00
2018-03-18T00:59:15.479Z,0.00
2018-03-18T01:00:15.489Z,0.00
2018-03-18T01:01:15.485Z,0.00
2018-03-18T01:02:15.494Z,0.00
2018-03-18T01:03:15.502Z,0.00
2018-03-18T01:04:15.514Z,0.00
2018-03-18T01:05:15.508Z,0.00
2018-03-18T01:06:15.523Z,0.00
2018-03-18T01:07:15.528Z,0.00
2018-03-18T01:08:15.534Z,0.00
2018-03-18T01:09:15.543Z,0.00
2018-03-18T01:10:15.540Z,0.00
2018-03-18T01:11:15.555Z,0.00
2018-03-18T01:12:15.557Z,0.00
2018-03-18T01:13:15.569Z,0.00
2018-03-18T01:14:15.562Z,0.00
2018-03-18T01:15:15.573Z,0.00
2018-03-18T01:16:15.579Z,0.00
2018-03-18T01:17:15.593Z,0.00
2018-03-18T01:18:15.602Z,0.00
2018-03-18T01:19:15.599Z,0.00
2018-03-18T01:20:15.607Z,0.00
2018-03-18T01:21:15.620Z,0.00
2018-03-18T01:22:15.625Z,0.00
2018-03-18T01:23:15.618Z,0.00
2018-03-18T01:24:15.626Z,0.00
2018-03-18T01:25:15.639Z,0.00
2018-03-18T01:26:15.650Z,0.00
2018-03-18T01:27:15.654Z,0.00
2018-03-18T01:28:15.649Z,0.00
2018-03-18T01:29:15.660Z,0.00
2018-03-18T01:30:15.667Z,0.00
2018-03-18T01:31:15.680Z,0.00
2018-03-18T01:32:15.677Z,0.00
2018-03-18T01:33:15.728Z,0.00
2018-03-18T01:34:15.690Z,0.00
2018-03-18T01:35:15.702Z,0.00
2018-03-18T01:36:15.698Z,0.00
2018-03-18T01:37:15.706Z,0.00
2018-03-18T01:38:15.728Z,0.00
2018-03-18T01:39:15.722Z,0.00
2018-03-18T01:40:15.735Z,0.00
2018-03-18T01:41:15.729Z,0.00
2018-03-18T01:42:15.742Z,0.00
2018-03-18T01:43:15.762Z,0.00
2018-03-18T01:44:15.759Z,0.00
2018-03-18T01:45:15.755Z,0.00
2018-03-18T01:46:15.759Z,0.00
2018-03-18T01:47:15.772Z,0.00
2018-03-18T01:48:15.778Z,0.00
2018-03-18T01:49:15.775Z,0.00
2018-03-18T01:50:15.784Z,0.00
2018-03-18T01:51:15.798Z,0.00
2018-03-18T01:52:15.800Z,0.00
2018-03-18T01:53:15.798Z,0.00
2018-03-18T01:54:15.817Z,0.00
2018-03-18T01:55:15.813Z,0.00
2018-03-18T01:56:15.827Z,0.00
2018-03-18T01:57:15.824Z,0.00
2018-03-18T01:58:15.835Z,0.00
2018-03-18T01:59:15.838Z,0.00
2018-03-18T02:00:15.856Z,0.00
2018-03-18T02:01:15.858Z,0.00
2018-03-18T02:02:15.850Z,0.00
2018-03-18T02:03:15.864Z,0.00
2018-03-18T02:04:15.870Z,0.00
2018-03-18T02:05:15.878Z,0.00
2018-03-18T02:06:15.879Z,0.00
2018-03-18T02:07:15.883Z,0.00
2018-03-18T02:08:15.893Z,0.00
2018-03-18T02:09:15.902Z,0.00
2018-03-18T02:10:15.900Z,0.00
2018-03-18T02:11:15.909Z,0.00
2018-03-18T02:12:15.914Z,0.00
2018-03-18T02:13:15.925Z,0.00
2018-03-18T02:14:15.923Z,0.00
2018-03-18T02:15:15.933Z,0.00
2018-03-18T02:16:15.938Z,0.00
2018-03-18T02:17:15.951Z,0.00
2018-03-18T02:18:15.944Z,0.00
2018-03-18T02:19:15.956Z,0.00
2018-03-18T02:20:15.961Z,0.00
2018-03-18T02:21:15.971Z,0.00
2018-03-18T02:22:15.969Z,0.00
2018-03-18T02:23:15.992Z,0.00
2018-03-18T02:24:15.985Z,0.00
2018-03-18T02:25:15.993Z,0.00
2018-03-18T02:26:15.994Z,0.00
2018-03-18T02:27:16.003Z,0.00
2018-03-18T02:28:16.024Z,0.00
2018-03-18T02:29:16.016Z,0.00
2018-03-18T02:30:16.016Z,0.00
2018-03-18T02:31:16.026Z,0.00
2018-03-18T02:32:16.035Z,0.00
2018-03-18T02:33:16.039Z,0.00
2018-03-18T02:34:16.037Z,0.00
2018-03-18T02:35:16.045Z,0.00
2018-03-18T02:36:16.054Z,0.00
2018-03-18T02:37:16.067Z,0.00
2018-03-18T02:38:16.073Z,0.00
2018-03-18T02:39:16.068Z,0.00
2018-03-18T02:40:16.082Z,0.00
2018-03-18T02:41:16.090Z,0.00
2018-03-18T02:42:16.083Z,0.00
2018-03-18T02:43:16.096Z,0.00
2018-03-18T02:44:16.100Z,0.00
2018-03-18T02:45:16.113Z,0.00
2018-03-18T02:46:16.110Z,0.00
2018-03-18T02:47:16.115Z,0.00
2018-03-18T02:48:16.124Z,0.00
2018-03-18T02:49:16.138Z,0.00
2018-03-18T02:50:16.129Z,0.00
2018-03-18T02:51:16.142Z,0.00
2018-03-18T02:52:16.150Z,0.00
2018-03-18T02:53:16.156Z,0.00
2018-03-18T02:54:16.153Z,0.00
2018-03-18T02:55:16.162Z,0.00
2018-03-18T02:56:16.171Z,0.00
2018-03-18T02:57:16.182Z,0.00
2018-03-18T02:58:16.175Z,0.00
2018-03-18T02:59:16.196Z,0.00
2018-03-18T03:00:16.205Z,0.00
2018-03-18T03:01:16.200Z,0.00
2018-03-18T03:02:16.199Z,0.00
2018-03-18T03:03:16.207Z,0.00
2018-03-18T03:04:16.215Z,0.00
2018-03-18T03:05:16.224Z,0.00
2018-03-18T03:06:16.225Z,0.00
2018-03-18T03:07:16.232Z,0.00
2018-03-18T03:08:16.256Z,0.00
2018-03-18T03:09:16.251Z,0.00
2018-03-18T03:10:16.247Z,0.00
2018-03-18T03:11:16.253Z,0.00
2018-03-18T03:12:16.265Z,0.00
2018-03-18T03:13:16.260Z,0.00
2018-03-18T03:14:16.266Z,0.00
2018-03-18T03:15:16.276Z,0.00
2018-03-18T03:16:16.287Z,0.00
2018-03-18T03:17:16.284Z,0.00
2018-03-18T03:18:16.299Z,0.00
2018-03-18T03:19:16.303Z,0.00
2018-03-18T03:20:16.308Z,0.00
2018-03-18T03:21:16.304Z,0.00
2018-03-18T03:22:16.313Z,0.00
2018-03-18T03:23:16.321Z,0.00
2018-03-18T03:24:16.331Z,0.00
2018-03-18T03:25:16.340Z,0.00
2018-03-18T03:26:16.340Z,0.00
2018-03-18T03:27:16.344Z,0.00
2018-03-18T03:28:16.355Z,0.00
2018-03-18T03:29:16.351Z,0.00
2018-03-18T03:30:16.372Z,0.00
2018-03-18T03:31:16.370Z,0.00
2018-03-18T03:32:16.378Z,0.00
2018-03-18T03:33:16.378Z,0.00
2018-03-18T03:34:16.386Z,0.00
2018-03-18T03:35:16.395Z,0.00
2018-03-18T03:36:16.401Z,0.00
2018-03-18T03:37:16.396Z,0.00
2018-03-18T03:38:16.407Z,0.00
2018-03-18T03:39:16.418Z,0.00
2018-03-18T03:40:16.412Z,0.00
2018-03-18T03:41:16.420Z,0.00
2018-03-18T03:42:16.432Z,0.00
2018-03-18T03:43:16.437Z,0.00
2018-03-18T03:44:16.434Z,0.00
2018-03-18T03:45:16.442Z,0.00
2018-03-18T03:46:16.455Z,0.00
2018-03-18T03:47:16.461Z,0.00
2018-03-18T03:48:16.456Z,0.00
2018-03-18T03:49:16.470Z,0.00
2018-03-18T03:50:16.474Z,0.00
2018-03-18T03:51:16.487Z,0.00
2018-03-18T03:52:16.482Z,0.00
2018-03-18T03:53:16.492Z,0.00
2018-03-18T03:54:16.496Z,0.00
2018-03-18T03:55:16.495Z,0.00
2018-03-18T03:56:16.503Z,0.00
2018-03-18T03:57:16.517Z,0.00
2018-03-18T03:58:16.521Z,0.00
2018-03-18T03:59:16.524Z,0.00
2018-03-18T04:00:16.525Z,0.00
2018-03-18T04:01:16.541Z,0.00
2018-03-18T04:02:16.543Z,0.00
2018-03-18T04:03:16.541Z,0.00
2018-03-18T04:04:16.549Z,0.00
2018-03-18T04:05:16.557Z,0.00
2018-03-18T04:06:16.565Z,0.00
2018-03-18T04:07:16.563Z,0.00
2018-03-18T04:08:16.571Z,0.00
2018-03-18T04:09:16.584Z,0.00
2018-03-18T04:10:16.577Z,0.00
2018-03-18T04:11:16.590Z,0.00
2018-03-18T04:12:16.601Z,0.00
2018-03-18T04:13:16.603Z,0.00
2018-03-18T04:14:16.599Z,0.00
2018-03-18T04:15:16.609Z,0.00
2018-03-18T04:16:16.617Z,0.00
2018-03-18T04:17:16.631Z,0.00
2018-03-18T04:18:16.625Z,0.00
2018-03-18T04:19:16.640Z,0.00
2018-03-18T04:20:16.640Z,0.00
2018-03-18T04:21:16.642Z,0.00
2018-03-18T04:22:16.646Z,0.00
2018-03-18T04:23:16.656Z,0.00
2018-03-18T04:24:16.667Z,0.00
2018-03-18T04:25:16.663Z,0.00
2018-03-18T04:26:16.669Z,0.00
2018-03-18T04:27:16.678Z,0.00
2018-03-18T04:28:16.687Z,0.00
2018-03-18T04:29:16.685Z,0.00
2018-03-18T04:30:16.702Z,0.00
2018-03-18T04:31:16.706Z,0.00
2018-03-18T04:32:16.714Z,0.00
2018-03-18T04:33:16.718Z,0.00
2018-03-18T04:34:16.715Z,0.00
2018-03-18T04:35:16.728Z,0.00
2018-03-18T04:36:16.725Z,0.00
2018-03-18T04:37:16.730Z,0.00
2018-03-18T04:38:16.742Z,0.00
2018-03-18T04:39:16.747Z,0.00
2018-03-18T04:40:16.747Z,0.00
2018-03-18T04:41:16.753Z,4.00
2018-03-18T04:42:16.760Z,0.00
2018-03-18T04:43:16.771Z,0.00
2018-03-18T04:44:16.770Z,4.00
2018-03-18T04:45:16.775Z,0.00
2018-03-18T04:46:16.785Z,4.00
2018-03-18T04:47:16.781Z,4.00
2018-03-18T04:48:16.789Z,4.00
2018-03-18T04:49:16.799Z,4.00
2018-03-18T04:50:16.811Z,8.00
2018-03-18T04:51:16.804Z,8.00
2018-03-18T04:52:16.815Z,12.00
2018-03-18T04:53:16.821Z,12.00
2018-03-18T04:54:16.834Z,16.00
2018-03-18T04:55:16.827Z,16.00
2018-03-18T04:56:16.837Z,24.00
2018-03-18T04:57:16.844Z,28.00
2018-03-18T04:58:16.841Z,28.00
2018-03-18T04:59:16.903Z,36.00
2018-03-18T05:00:16.862Z,44.00
2018-03-18T05:01:16.868Z,48.00
2018-03-18T05:02:16.865Z,56.00
2018-03-18T05:03:16.877Z,64.00
2018-03-18T05:04:16.887Z,76.00
2018-03-18T05:05:16.882Z,88.00
2018-03-18T05:06:16.888Z,100.00
2018-03-18T05:07:16.896Z,112.00
2018-03-18T05:08:16.908Z,128.00
2018-03-18T05:09:16.901Z,144.00
2018-03-18T05:10:16.914Z,164.00
2018-03-18T05:11:16.918Z,180.00
2018-03-18T05:12:16.928Z,200.00
2018-03-18T05:13:16.925Z,220.00
2018-03-18T05:14:16.946Z,248.00
2018-03-18T05:15:16.945Z,272.00
2018-03-18T05:16:16.939Z,296.00
2018-03-18T05:17:16.951Z,328.00
2018-03-18T05:18:16.956Z,360.00
2018-03-18T05:19:16.973Z,392.00
2018-03-18T05:20:16.963Z,424.00
2018-03-18T05:21:16.971Z,464.00
2018-03-18T05:22:16.983Z,496.00
2018-03-18T05:23:16.976Z,536.00
2018-03-18T05:24:16.985Z,576.00
2018-03-18T05:25:16.994Z,616.00
2018-03-18T05:26:17.005Z,660.00
2018-03-18T05:27:16.999Z,700.00
2018-03-18T05:28:17.012Z,740.00
2018-03-18T05:29:17.019Z,780.00
2018-03-18T05:30:17.033Z,824.00
2018-03-18T05:31:17.027Z,864.00
2018-03-18T05:32:17.034Z,904.00
2018-03-18T05:33:17.044Z,952.00
2018-03-18T05:34:17.042Z,992.00
2018-03-18T05:35:17.044Z,1032.00
2018-03-18T05:36:17.066Z,1076.00
2018-03-18T05:37:17.063Z,1120.00
2018-03-18T05:38:17.059Z,1168.00
2018-03-18T05:39:17.068Z,1204.00
2018-03-18T05:40:17.077Z,1244.00
2018-03-18T05:41:17.078Z,1304.00
2018-03-18T05:42:17.082Z,1356.00
2018-03-18T05:43:17.090Z,1408.00
2018-03-18T05:44:17.100Z,1452.00
2018-03-18T05:45:17.096Z,1500.00
2018-03-18T05:46:17.105Z,1544.00
2018-03-18T05:47:17.118Z,1588.00
2018-03-18T05:48:17.112Z,1624.00
2018-03-18T05:49:17.119Z,1672.00
2018-03-18T05:50:17.130Z,1716.00
2018-03-18T05:51:17.136Z,1764.00
2018-03-18T05:52:17.133Z,1804.00
2018-03-18T05:53:17.158Z,1844.00
2018-03-18T05:54:17.152Z,1884.00
2018-03-18T05:55:17.158Z,1924.00
2018-03-18T05:56:17.209Z,1964.00
2018-03-18T05:57:17.166Z,1988.00
2018-03-18T05:58:17.174Z,2024.00
2018-03-18T05:59:17.182Z,2056.00
2018-03-18T06:00:17.182Z,2092.00
2018-03-18T06:01:17.188Z,2124.00
2018-03-18T06:02:17.203Z,2164.00
2018-03-18T06:03:17.206Z,2192.00
2018-03-18T06:04:17.202Z,2236.00
2018-03-18T06:05:17.213Z,2288.00
2018-03-18T06:06:17.220Z,2324.00
2018-03-18T06:07:17.217Z,2356.00
2018-03-18T06:08:17.235Z,2384.00
2018-03-18T06:09:17.234Z,2400.00
2018-03-18T06:10:17.246Z,2388.00
2018-03-18T06:11:17.240Z,2320.00
2018-03-18T06:12:17.252Z,2364.00
2018-03-18T06:13:17.261Z,2400.00
2018-03-18T06:14:17.269Z,2440.00
2018-03-18T06:15:17.263Z,2460.00
2018-03-18T06:16:17.272Z,2496.00
2018-03-18T06:17:17.286Z,2528.00
2018-03-18T06:18:17.278Z,2552.00
2018-03-18T06:19:17.297Z,2564.00
2018-03-18T06:20:17.294Z,2628.00
2018-03-18T06:21:17.304Z,2692.00
2018-03-18T06:22:17.299Z,2764.00
2018-03-18T06:23:17.312Z,2836.00
2018-03-18T06:24:17.322Z,2888.00
2018-03-18T06:25:17.329Z,2928.00
2018-03-18T06:26:17.327Z,2956.00
2018-03-18T06:27:17.331Z,3000.00
2018-03-18T06:28:17.339Z,3060.00
2018-03-18T06:29:17.349Z,3108.00
2018-03-18T06:30:17.347Z,3144.00
2018-03-18T06:31:17.358Z,3168.00
2018-03-18T06:32:17.363Z,3196.00
2018-03-18T06:33:17.375Z,3244.00
2018-03-18T06:34:17.381Z,3296.00
2018-03-18T06:35:17.380Z,3332.00
2018-03-18T06:36:17.386Z,3348.00
2018-03-18T06:37:17.384Z,3360.00
2018-03-18T06:38:17.392Z,3384.00
2018-03-18T06:39:17.407Z,3412.00
2018-03-18T06:40:17.410Z,3448.00
2018-03-18T06:41:17.421Z,3464.00
2018-03-18T06:42:17.414Z,3488.00
2018-03-18T06:43:17.423Z,3508.00
2018-03-18T06:44:17.434Z,3488.00
2018-03-18T06:45:17.430Z,3352.00
2018-03-18T06:46:17.442Z,3340.00
2018-03-18T06:47:17.446Z,3452.00
2018-03-18T06:48:17.459Z,3540.00
2018-03-18T06:49:17.467Z,3596.00
2018-03-18T06:50:17.460Z,3624.00
2018-03-18T06:51:17.469Z,3644.00
2018-03-18T06:52:17.479Z,3684.00
2018-03-18T06:53:17.487Z,3724.00
2018-03-18T06:54:17.490Z,3740.00
2018-03-18T06:55:17.493Z,3744.00
2018-03-18T06:56:17.503Z,3760.00
2018-03-18T06:57:17.513Z,3792.00
2018-03-18T06:58:17.511Z,3840.00
2018-03-18T06:59:17.517Z,3896.00
2018-03-18T07:00:17.530Z,3964.00
2018-03-18T07:01:17.537Z,4016.00
2018-03-18T07:02:17.530Z,4088.00
2018-03-18T07:03:17.542Z,4172.00
2018-03-18T07:04:17.547Z,4296.00
2018-03-18T07:05:17.560Z,4392.00
2018-03-18T07:06:17.553Z,4440.00
2018-03-18T07:07:17.571Z,4472.00
2018-03-18T07:08:17.569Z,4500.00
2018-03-18T07:09:17.582Z,4532.00
2018-03-18T07:10:17.588Z,4548.00
2018-03-18T07:11:17.588Z,4588.00
2018-03-18T07:12:17.594Z,4592.00
2018-03-18T07:13:17.612Z,4604.00
2018-03-18T07:14:17.616Z,4600.00
2018-03-18T07:15:17.621Z,4572.00
2018-03-18T07:16:17.616Z,4568.00
2018-03-18T07:17:17.629Z,4624.00
2018-03-18T07:18:17.647Z,4644.00
2018-03-18T07:19:17.648Z,4708.00
2018-03-18T07:20:17.640Z,4908.00
2018-03-18T07:21:17.648Z,5664.00
2018-03-18T07:22:17.662Z,7696.00
2018-03-18T07:23:17.678Z,7500.00
2018-03-18T07:24:17.679Z,7332.00
2018-03-18T07:25:17.672Z,7868.00
2018-03-18T07:26:17.680Z,10984.00
2018-03-18T07:27:17.688Z,12292.00
2018-03-18T07:28:17.702Z,12712.00
2018-03-18T07:29:17.707Z,10940.00
2018-03-18T07:30:17.713Z,10944.00
2018-03-18T07:31:17.723Z,11296.00
2018-03-18T07:32:17.721Z,9216.00
2018-03-18T07:33:17.731Z,7768.00
2018-03-18T07:34:17.743Z,9064.00
2018-03-18T07:35:17.747Z,10220.00
2018-03-18T07:36:17.745Z,8628.00
2018-03-18T07:37:17.755Z,8572.00
2018-03-18T07:38:17.765Z,8744.00
2018-03-18T07:39:18.099Z,9064.00
2018-03-18T07:40:17.779Z,9796.00
2018-03-18T07:41:17.781Z,12388.00
2018-03-18T07:42:17.786Z,11088.00
2018-03-18T07:43:17.796Z,9292.00
2018-03-18T07:44:17.803Z,6560.00
2018-03-18T07:45:17.825Z,5184.00
2018-03-18T07:46:17.825Z,5060.00
2018-03-18T07:47:17.827Z,4988.00
2018-03-18T07:48:17.827Z,4996.00
2018-03-18T07:49:17.835Z,5008.00
2018-03-18T07:50:17.847Z,4960.00
2018-03-18T07:51:17.854Z,4936.00
2018-03-18T07:52:17.862Z,4932.00
2018-03-18T07:53:17.876Z,4912.00
2018-03-18T07:54:17.871Z,4896.00
2018-03-18T07:55:17.876Z,4916.00
2018-03-18T07:56:17.924Z,4940.00
2018-03-18T07:57:17.898Z,4956.00
2018-03-18T07:58:17.903Z,4976.00
2018-03-18T07:59:17.915Z,5004.00
2018-03-18T08:00:17.907Z,5004.00
2018-03-18T08:01:17.916Z,5032.00
2018-03-18T08:02:17.929Z,5076.00
2018-03-18T08:03:17.938Z,5108.00
2018-03-18T08:04:17.944Z,5136.00
2018-03-18T08:05:17.945Z,5172.00
2018-03-18T08:06:17.948Z,5196.00
2018-03-18T08:07:17.960Z,5220.00
2018-03-18T08:08:18.000Z,5244.00
2018-03-18T08:09:17.979Z,5248.00
2018-03-18T08:10:17.984Z,5276.00
2018-03-18T08:11:18.007Z,5328.00
2018-03-18T08:12:18.002Z,5368.00
2018-03-18T08:13:18.055Z,5404.00
2018-03-18T08:14:18.006Z,5408.00
2018-03-18T08:15:18.019Z,5440.00
2018-03-18T08:16:18.037Z,5436.00
2018-03-18T08:17:18.038Z,5408.00
2018-03-18T08:18:18.035Z,5384.00
2018-03-18T08:19:18.039Z,5348.00
2018-03-18T08:20:18.051Z,5336.00
2018-03-18T08:21:18.060Z,5348.00
2018-03-18T08:22:18.069Z,5344.00
2018-03-18T08:23:18.075Z,5308.00
2018-03-18T08:24:18.086Z,5252.00
2018-03-18T08:25:18.091Z,5288.00
2018-03-18T08:26:18.109Z,5260.00
2018-03-18T08:27:18.103Z,5232.00
2018-03-18T08:28:18.109Z,5176.00
2018-03-18T08:29:18.122Z,5164.00
2018-03-18T08:30:18.125Z,5168.00
2018-03-18T08:31:18.135Z,5164.00
2018-03-18T08:32:18.134Z,5152.00
2018-03-18T08:33:18.139Z,5132.00
2018-03-18T08:34:18.152Z,5140.00
2018-03-18T08:35:18.155Z,5124.00
2018-03-18T08:36:18.166Z,5128.00
2018-03-18T08:37:18.176Z,5148.00
2018-03-18T08:38:18.185Z,5152.00
2018-03-18T08:39:18.185Z,5196.00
2018-03-18T08:40:18.192Z,5260.00
2018-03-18T08:41:18.199Z,5300.00
2018-03-18T08:42:18.207Z,5328.00
2018-03-18T08:43:18.214Z,5376.00
2018-03-18T08:44:18.223Z,5412.00
2018-03-18T08:45:18.236Z,5460.00
2018-03-18T08:46:18.245Z,5508.00
2018-03-18T08:47:18.242Z,5540.00
2018-03-18T08:48:18.247Z,5552.00
2018-03-18T08:49:18.255Z,5516.00
2018-03-18T08:50:18.265Z,5524.00
2018-03-18T08:51:18.273Z,5584.00
2018-03-18T08:52:18.295Z,5608.00
2018-03-18T08:53:18.295Z,5656.00
2018-03-18T08:54:18.300Z,5656.00
2018-03-18T08:55:18.308Z,5696.00
2018-03-18T08:56:18.310Z,5736.00
2018-03-18T08:57:18.317Z,5748.00
2018-03-18T08:58:18.330Z,5740.00
2018-03-18T08:59:18.331Z,5728.00
2018-03-18T09:00:18.354Z,5716.00
2018-03-18T09:01:18.352Z,5680.00
2018-03-18T09:02:18.359Z,5636.00
2018-03-18T09:03:18.367Z,5636.00
2018-03-18T09:04:18.377Z,5612.00
2018-03-18T09:05:18.373Z,5608.00
2018-03-18T09:06:18.382Z,5572.00
2018-03-18T09:07:18.394Z,5560.00
2018-03-18T09:08:18.403Z,5560.00
2018-03-18T09:09:18.412Z,5560.00
2018-03-18T09:10:18.417Z,5548.00
2018-03-18T09:11:18.427Z,5492.00
2018-03-18T09:12:18.435Z,5484.00
2018-03-18T09:13:18.444Z,5480.00
2018-03-18T09:14:18.452Z,5456.00
2018-03-18T09:15:18.466Z,5448.00
2018-03-18T09:16:18.459Z,5448.00
2018-03-18T09:17:18.467Z,5448.00
2018-03-18T09:18:18.492Z,5456.00
2018-03-18T09:19:18.485Z,5452.00
2018-03-18T09:20:18.500Z,5440.00
2018-03-18T09:21:18.504Z,5484.00
2018-03-18T09:22:18.510Z,5508.00
2018-03-18T09:23:18.521Z,5520.00
2018-03-18T09:24:18.529Z,5508.00
2018-03-18T09:25:18.540Z,5532.00
2018-03-18T09:26:18.547Z,5552.00
2018-03-18T09:27:18.560Z,5568.00
2018-03-18T09:28:18.565Z,5580.00
2018-03-18T09:29:18.561Z,5584.00
2018-03-18T09:30:18.579Z,5608.00
2018-03-18T09:31:18.578Z,5624.00
2018-03-18T09:32:18.592Z,5664.00
2018-03-18T09:33:18.600Z,5640.00
2018-03-18T09:34:18.610Z,5648.00
2018-03-18T09:35:18.615Z,5632.00
2018-03-18T09:36:18.624Z,5612.00
2018-03-18T09:37:18.636Z,5584.00
2018-03-18T09:38:18.647Z,5556.00
2018-03-18T09:39:18.651Z,5548.00
2018-03-18T09:40:18.662Z,5532.00
2018-03-18T09:41:18.672Z,5488.00
2018-03-18T09:42:18.677Z,5452.00
2018-03-18T09:43:18.685Z,5420.00
2018-03-18T09:44:18.695Z,5436.00
2018-03-18T09:45:18.703Z,5436.00
2018-03-18T09:46:18.714Z,5444.00
2018-03-18T09:47:18.725Z,5444.00
2018-03-18T09:48:18.721Z,5444.00
2018-03-18T09:49:18.732Z,5444.00
2018-03-18T09:50:18.735Z,5448.00
2018-03-18T09:51:18.744Z,5436.00
2018-03-18T09:52:18.754Z,5448.00
2018-03-18T09:53:18.763Z,5460.00
2018-03-18T09:54:18.771Z,5476.00
2018-03-18T09:55:18.782Z,5472.00
2018-03-18T09:56:18.789Z,5496.00
2018-03-18T09:57:18.798Z,5516.00
2018-03-18T09:58:18.809Z,5540.00
2018-03-18T09:59:18.820Z,5560.00
2018-03-18T10:00:18.829Z,5572.00
2018-03-18T10:01:18.833Z,5576.00
2018-03-18T10:02:18.843Z,5572.00
2018-03-18T10:03:18.855Z,5584.00
2018-03-18T10:04:18.904Z,5600.00
2018-03-18T10:05:18.869Z,5612.00
2018-03-18T10:06:18.878Z,5632.00
2018-03-18T10:07:18.890Z,5628.00
2018-03-18T10:08:18.899Z,5612.00
2018-03-18T10:09:18.904Z,5592.00
2018-03-18T10:10:18.916Z,5616.00
2018-03-18T10:11:18.926Z,5584.00
2018-03-18T10:12:18.944Z,5600.00
2018-03-18T10:13:18.940Z,5604.00
2018-03-18T10:14:18.952Z,5616.00
2018-03-18T10:15:18.963Z,5632.00
2018-03-18T10:16:18.967Z,5636.00
2018-03-18T10:17:18.975Z,5636.00
2018-03-18T10:18:18.988Z,5644.00
2018-03-18T10:19:18.992Z,5660.00
2018-03-18T10:20:19.059Z,5672.00
2018-03-18T10:21:19.011Z,5720.00
2018-03-18T10:22:19.024Z,5752.00
2018-03-18T10:23:19.039Z,5800.00
2018-03-18T10:24:19.037Z,5812.00
2018-03-18T10:25:19.046Z,5832.00
2018-03-18T10:26:19.056Z,5844.00
2018-03-18T10:27:19.065Z,5868.00
2018-03-18T10:28:19.073Z,5920.00
2018-03-18T10:29:19.082Z,5968.00
2018-03-18T10:30:19.112Z,5992.00
2018-03-18T10:31:19.100Z,6060.00
2018-03-18T10:32:19.112Z,6124.00
2018-03-18T10:33:19.120Z,6160.00
2018-03-18T10:34:19.126Z,6176.00
2018-03-18T10:35:19.139Z,6204.00
2018-03-18T10:36:19.144Z,6240.00
2018-03-18T10:37:19.153Z,6268.00
2018-03-18T10:38:19.173Z,6276.00
2018-03-18T10:39:19.171Z,6300.00
2018-03-18T10:40:19.190Z,6296.00
2018-03-18T10:41:19.189Z,6292.00
2018-03-18T10:42:19.201Z,6264.00
2018-03-18T10:43:19.210Z,6244.00
2018-03-18T10:44:19.219Z,6220.00
2018-03-18T10:45:19.229Z,6196.00
2018-03-18T10:46:19.233Z,6184.00
2018-03-18T10:47:19.244Z,6148.00
2018-03-18T10:48:19.264Z,6104.00
2018-03-18T10:49:19.275Z,6092.00
2018-03-18T10:50:19.285Z,6072.00
2018-03-18T10:51:19.292Z,6064.00
2018-03-18T10:52:19.307Z,6068.00
2018-03-18T10:53:19.307Z,6048.00
2018-03-18T10:54:19.317Z,6060.00
2018-03-18T10:55:19.328Z,6064.00
2018-03-18T10:56:19.334Z,6080.00
2018-03-18T10:57:19.344Z,6104.00
2018-03-18T10:58:19.356Z,6128.00
2018-03-18T10:59:19.392Z,6148.00
2018-03-18T11:00:19.370Z,6168.00
2018-03-18T11:01:19.382Z,6188.00
2018-03-18T11:02:19.389Z,6212.00
2018-03-18T11:03:19.400Z,6224.00
2018-03-18T11:04:19.411Z,6248.00
2018-03-18T11:05:19.415Z,6272.00
2018-03-18T11:06:19.427Z,6288.00
2018-03-18T11:07:19.431Z,6296.00
2018-03-18T11:08:19.445Z,6304.00
2018-03-18T11:09:19.455Z,6320.00
2018-03-18T11:10:19.471Z,6340.00
2018-03-18T11:11:19.485Z,6364.00
2018-03-18T11:12:19.489Z,6360.00
2018-03-18T11:13:19.498Z,6348.00
2018-03-18T11:14:19.506Z,6332.00
2018-03-18T11:15:19.517Z,6300.00
2018-03-18T11:16:19.587Z,6268.00
2018-03-18T11:17:19.534Z,6220.00
2018-03-18T11:18:19.544Z,6224.00
2018-03-18T11:19:19.552Z,6224.00
2018-03-18T11:20:19.560Z,6232.00
2018-03-18T11:21:19.570Z,6228.00
2018-03-18T11:22:19.582Z,6224.00
2018-03-18T11:23:19.587Z,6236.00
2018-03-18T11:24:19.597Z,6228.00
2018-03-18T11:25:19.606Z,6216.00
2018-03-18T11:26:19.626Z,6192.00
2018-03-18T11:27:19.652Z,6160.00
2018-03-18T11:28:19.648Z,6144.00
2018-03-18T11:29:19.653Z,6112.00
2018-03-18T11:30:19.666Z,6084.00
2018-03-18T11:31:19.671Z,6068.00
2018-03-18T11:32:19.679Z,6060.00
2018-03-18T11:33:19.687Z,6064.00
2018-03-18T11:34:19.697Z,6052.00
2018-03-18T11:35:19.705Z,6052.00
2018-03-18T11:36:19.715Z,6040.00
2018-03-18T11:37:19.740Z,6024.00
2018-03-18T11:38:19.746Z,6024.00
2018-03-18T11:39:19.753Z,6024.00
2018-03-18T11:40:19.767Z,6008.00
2018-03-18T11:41:19.772Z,5996.00
2018-03-18T11:42:19.780Z,5984.00
2018-03-18T11:43:19.789Z,5976.00
2018-03-18T11:44:19.801Z,5964.00
2018-03-18T11:45:19.807Z,5952.00
2018-03-18T11:46:19.829Z,5956.00
2018-03-18T11:47:19.829Z,5952.00
2018-03-18T11:48:19.837Z,5928.00
2018-03-18T11:49:19.843Z,5908.00
2018-03-18T11:50:19.863Z,5892.00
2018-03-18T11:51:19.873Z,5888.00
2018-03-18T11:52:19.882Z,5876.00
2018-03-18T11:53:19.890Z,5856.00
2018-03-18T11:54:19.917Z,5836.00
2018-03-18T11:55:19.922Z,5820.00
2018-03-18T11:56:19.921Z,5804.00
2018-03-18T11:57:19.931Z,5768.00
2018-03-18T11:58:19.968Z,5740.00
2018-03-18T11:59:19.960Z,5724.00
2018-03-18T12:00:19.967Z,5696.00
2018-03-18T12:01:19.965Z,5672.00
2018-03-18T12:02:19.970Z,5660.00
2018-03-18T12:03:20.012Z,5628.00
2018-03-18T12:04:20.081Z,5604.00
2018-03-18T12:05:20.022Z,5564.00
2018-03-18T12:06:20.052Z,5536.00
2018-03-18T12:07:20.033Z,5504.00
2018-03-18T12:08:20.064Z,5472.00
2018-03-18T12:09:20.046Z,5452.00
2018-03-18T12:10:20.066Z,5432.00
2018-03-18T12:11:20.063Z,5408.00
2018-03-18T12:12:20.078Z,5396.00
2018-03-18T12:13:20.134Z,5372.00
2018-03-18T12:14:20.091Z,5344.00
2018-03-18T12:15:20.126Z,5316.00
2018-03-18T12:16:20.123Z,5292.00
2018-03-18T12:17:20.145Z,5280.00
2018-03-18T12:18:20.160Z,5260.00
2018-03-18T12:19:20.150Z,5240.00
2018-03-18T12:20:20.160Z,5216.00
2018-03-18T12:21:20.240Z,5200.00
2018-03-18T12:22:20.174Z,5188.00
2018-03-18T12:23:20.183Z,5168.00
2018-03-18T12:24:20.191Z,5160.00
2018-03-18T12:25:20.201Z,5144.00
2018-03-18T12:26:20.214Z,5112.00
2018-03-18T12:27:20.229Z,5084.00
2018-03-18T12:28:20.238Z,5064.00
2018-03-18T12:29:20.251Z,5048.00
2018-03-18T12:30:20.270Z,5036.00
2018-03-18T12:31:20.269Z,5048.00
2018-03-18T12:32:20.275Z,5068.00
2018-03-18T12:33:20.285Z,5068.00